createdAt,value
2018-06-04T00:03:28.774Z,94.30
2018-06-04T00:13:30.095Z,94.10
2018-06-04T00:23:32.184Z,93.90
2018-06-04T00:33:33.498Z,93.90
2018-06-04T00:43:35.603Z,94.30
2018-06-04T00:53:36.947Z,94.30
2018-06-04T01:13:45.527Z,94.50
2018-06-04T01:23:46.877Z,94.10
2018-06-04T01:33:48.994Z,94.60
2018-06-04T01:43:50.341Z,94.70
2018-06-04T01:53:51.693Z,94.50
2018-06-04T02:03:53.050Z,94.60
2018-06-04T02:13:55.139Z,94.90
2018-06-04T02:23:56.450Z,94.90
2018-06-04T02:33:58.565Z,95.20
2018-06-04T02:43:59.903Z,95.20
2018-06-04T02:54:01.252Z,94.90
2018-06-04T03:04:03.376Z,94.90
2018-06-04T03:14:05.493Z,94.70
2018-06-04T03:24:07.622Z,94.80
2018-06-04T03:34:09.731Z,94.80
2018-06-04T04:04:25.083Z,94.10
2018-06-04T04:14:26.412Z,94.30
2018-06-04T04:34:34.392Z,93.40
2018-06-04T04:44:36.507Z,93.00
2018-06-04T04:54:37.876Z,93.10
2018-06-04T05:04:39.245Z,92.60
2018-06-04T05:14:40.598Z,91.60
2018-06-04T05:24:41.949Z,91.60
2018-06-04T05:34:43.299Z,90.80
2018-06-04T05:44:45.440Z,82.50
2018-06-04T05:54:46.801Z,82.40
2018-06-04T06:04:48.162Z,81.00
2018-06-04T06:14:49.466Z,82.40
2018-06-04T06:24:50.811Z,79.90
2018-06-04T06:34:52.935Z,66.90
2018-06-04T06:44:54.287Z,66.80
2018-06-04T06:54:55.641Z,65.40
2018-06-04T07:04:56.989Z,55.60
2018-06-04T07:14:58.345Z,50.20
2018-06-04T07:24:59.688Z,47.40
2018-06-04T07:35:01.020Z,47.90
2018-06-04T07:45:02.577Z,41.20
2018-06-04T07:55:03.896Z,33.50
2018-06-04T08:05:05.993Z,30.00
2018-06-04T08:15:07.360Z,30.00
2018-06-04T08:25:08.715Z,30.60
2018-06-04T08:35:10.831Z,31.30
2018-06-04T08:45:12.207Z,31.30
2018-06-04T08:55:13.565Z,30.00
2018-06-04T09:05:14.916Z,34.30
2018-06-04T09:15:16.263Z,30.60
2018-06-04T09:25:17.581Z,27.60
2018-06-04T09:35:18.912Z,35.20
2018-06-04T09:45:21.007Z,32.40
2018-06-04T09:55:22.331Z,32.40
2018-06-04T10:05:24.452Z,33.90
2018-06-04T10:15:25.804Z,33.90
2018-06-04T10:25:27.173Z,34.50
2018-06-04T10:35:28.579Z,33.50
2018-06-04T10:45:29.930Z,37.90
2018-06-04T10:55:32.055Z,42.80
2018-06-04T11:05:33.416Z,42.70
2018-06-04T11:15:34.781Z,47.80
2018-06-04T11:25:36.122Z,46.50
2018-06-04T11:35:37.461Z,44.20
2018-06-04T11:45:38.774Z,45.80
2018-06-04T11:55:40.130Z,47.80
2018-06-04T12:05:42.254Z,48.20
2018-06-04T12:15:43.603Z,48.10
2018-06-04T12:25:44.959Z,47.50
2018-06-04T12:35:46.306Z,43.60
2018-06-04T12:45:47.699Z,43.90
2018-06-04T12:55:49.040Z,44.10
2018-06-04T13:05:50.402Z,43.90
2018-06-04T13:15:51.758Z,45.30
2018-06-04T13:25:53.123Z,46.50
2018-06-04T13:35:55.233Z,45.60
2018-06-04T13:45:57.317Z,48.50
2018-06-04T13:55:58.639Z,48.50
2018-06-04T14:06:00.758Z,48.90
2018-06-04T14:16:03.952Z,50.60
2018-06-04T14:26:05.299Z,51.20
2018-06-04T14:36:07.440Z,58.50
2018-06-04T14:46:08.791Z,58.40
2018-06-04T14:56:10.136Z,73.00
2018-06-04T15:06:11.475Z,83.70
2018-06-04T15:16:12.817Z,88.20
2018-06-04T15:26:14.197Z,90.20
2018-06-04T15:36:16.334Z,92.40
2018-06-04T15:46:17.680Z,92.30
2018-06-04T15:56:18.997Z,92.50
2018-06-04T16:06:20.348Z,92.60
2018-06-04T16:16:21.700Z,92.30
2018-06-04T16:26:29.809Z,92.80
2018-06-04T16:46:37.874Z,92.40
2018-06-04T16:56:39.540Z,92.60
2018-06-04T17:06:41.728Z,93.20
2018-06-04T17:16:43.077Z,93.10
2018-06-04T17:26:44.458Z,92.80
2018-06-04T17:36:45.727Z,93.10
2018-06-04T17:46:46.978Z,93.10
2018-06-04T17:56:51.655Z,92.60
2018-06-04T18:06:53.931Z,93.00
2018-06-04T18:16:55.199Z,93.00
2018-06-04T18:26:56.478Z,92.20
2018-06-04T18:36:58.410Z,90.80
2018-06-04T18:46:59.725Z,91.90
2018-06-04T18:57:01.082Z,92.00
2018-06-04T19:07:10.049Z,93.50
2018-06-04T19:17:11.938Z,93.50
2018-06-04T19:27:14.259Z,94.00
2018-06-04T19:37:16.662Z,94.30
2018-06-04T19:57:26.146Z,93.60
2018-06-04T20:17:35.757Z,93.50
2018-06-04T20:27:37.036Z,92.90
2018-06-04T20:37:38.548Z,93.40
2018-06-04T20:47:39.816Z,93.40
2018-06-04T20:57:42.102Z,93.70
2018-06-04T21:07:43.404Z,93.60
2018-06-04T21:17:44.679Z,94.20
2018-06-04T21:27:46.913Z,94.50
2018-06-04T21:37:48.219Z,94.60
2018-06-04T21:47:49.486Z,94.90
2018-06-04T21:57:50.741Z,95.00
2018-06-04T22:07:58.459Z,94.40
2018-06-04T22:18:01.678Z,94.40
2018-06-04T22:28:03.040Z,94.90
2018-06-04T22:38:04.307Z,94.80
2018-06-04T22:48:06.338Z,94.60
2018-06-04T22:58:08.446Z,95.40
2018-06-04T23:18:17.885Z,95.10
2018-06-04T23:28:19.895Z,95.30
2018-06-04T23:38:21.140Z,95.30
2018-06-04T23:48:22.393Z,95.10
2018-06-04T23:58:23.663Z,95.00
